createdAt,value
2023-04-03T00:03:35.870Z,41.10
2023-04-03T00:06:06.746Z,40.96
2023-04-03T00:08:37.224Z,40.84
2023-04-03T00:11:07.438Z,40.80
2023-04-03T00:13:35.719Z,40.41
2023-04-03T00:16:05.426Z,40.29
2023-04-03T00:18:33.557Z,39.92
2023-04-03T00:21:02.273Z,39.96
2023-04-03T00:23:30.773Z,39.88
2023-04-03T00:25:58.979Z,39.94
2023-04-03T00:28:28.401Z,39.90
2023-04-03T00:30:57.370Z,39.79
2023-04-03T00:33:26.584Z,39.65
2023-04-03T00:35:55.742Z,39.38
2023-04-03T00:38:24.430Z,39.15
2023-04-03T00:40:52.838Z,38.84
2023-04-03T00:43:25.664Z,38.59
2023-04-03T00:45:57.080Z,38.48
2023-04-03T00:48:37.454Z,38.43
2023-04-03T00:51:09.183Z,38.53
2023-04-03T00:53:58.166Z,38.49
2023-04-03T00:56:29.861Z,38.46
2023-04-03T00:59:06.223Z,38.33
2023-04-03T01:01:36.527Z,38.35
2023-04-03T01:04:06.189Z,38.14
2023-04-03T01:06:37.780Z,38.09
2023-04-03T01:09:07.332Z,38.00
2023-04-03T01:11:35.773Z,37.91
2023-04-03T01:14:04.083Z,37.82
2023-04-03T01:16:33.524Z,37.78
2023-04-03T01:19:03.048Z,37.66
2023-04-03T01:22:04.526Z,37.69
2023-04-03T01:24:34.347Z,37.62
2023-04-03T01:27:05.898Z,37.67
2023-04-03T01:29:34.951Z,37.61
2023-04-03T01:32:04.813Z,37.63
2023-04-03T01:34:33.337Z,37.71
2023-04-03T01:37:01.979Z,37.71
2023-04-03T01:39:30.615Z,37.59
2023-04-03T01:41:59.299Z,37.54
2023-04-03T01:44:28.424Z,37.32
2023-04-03T01:46:57.062Z,37.40
2023-04-03T01:49:25.452Z,37.31
2023-04-03T01:51:54.245Z,37.27
2023-04-03T01:54:22.341Z,37.32
2023-04-03T01:56:51.108Z,37.15
2023-04-03T01:59:19.952Z,37.27
2023-04-03T02:01:49.446Z,37.30
2023-04-03T02:04:18.000Z,37.09
2023-04-03T02:06:47.216Z,36.96
2023-04-03T02:09:16.132Z,36.85
2023-04-03T02:11:44.594Z,36.76
2023-04-03T02:14:13.249Z,36.63
2023-04-03T02:16:41.479Z,36.57
2023-04-03T02:19:10.036Z,36.50
2023-04-03T02:21:39.167Z,36.49
2023-04-03T02:24:08.009Z,36.28
2023-04-03T02:26:36.242Z,36.27
2023-04-03T02:29:04.512Z,36.14
2023-04-03T02:31:32.964Z,36.14
2023-04-03T02:34:02.965Z,36.03
2023-04-03T02:36:32.979Z,35.91
2023-04-03T02:39:01.284Z,35.94
2023-04-03T02:41:29.383Z,35.81
2023-04-03T02:43:57.728Z,35.72
2023-04-03T02:46:26.652Z,35.76
2023-04-03T02:48:55.644Z,35.71
2023-04-03T02:51:24.687Z,35.42
2023-04-03T02:53:53.349Z,35.36
2023-04-03T02:56:21.942Z,35.47
2023-04-03T02:58:51.372Z,35.31
2023-04-03T03:01:20.471Z,35.35
2023-04-03T03:03:48.834Z,35.36
2023-04-03T03:06:18.215Z,35.38
2023-04-03T03:08:47.020Z,35.22
2023-04-03T03:11:16.401Z,35.20
2023-04-03T03:13:45.832Z,35.26
2023-04-03T03:16:14.890Z,35.34
2023-04-03T03:18:43.613Z,35.07
2023-04-03T03:21:12.457Z,35.11
2023-04-03T03:23:40.927Z,34.89
2023-04-03T03:26:11.992Z,34.63
2023-04-03T03:28:40.919Z,34.64
2023-04-03T03:31:10.666Z,34.73
2023-04-03T03:33:39.701Z,34.38
2023-04-03T03:36:08.770Z,34.39
2023-04-03T03:38:38.933Z,34.32
2023-04-03T03:41:07.663Z,34.32
2023-04-03T03:43:36.545Z,34.34
2023-04-03T03:46:05.791Z,34.50
2023-04-03T03:48:34.147Z,34.24
2023-04-03T03:51:02.439Z,34.20
2023-04-03T03:53:32.324Z,34.30
2023-04-03T03:56:00.951Z,34.27
2023-04-03T03:58:29.101Z,34.42
2023-04-03T04:00:57.813Z,34.40
2023-04-03T04:03:27.440Z,34.43
2023-04-03T04:05:57.048Z,34.50
2023-04-03T04:08:25.963Z,34.45
2023-04-03T04:10:54.820Z,34.56
2023-04-03T04:13:23.921Z,34.81
2023-04-03T04:15:52.075Z,34.72
2023-04-03T04:18:20.169Z,34.78
2023-04-03T04:20:48.543Z,34.90
2023-04-03T04:23:18.851Z,35.17
2023-04-03T04:25:49.202Z,35.12
2023-04-03T04:28:17.781Z,35.03
2023-04-03T04:30:46.425Z,35.15
2023-04-03T04:33:14.684Z,34.96
2023-04-03T04:35:44.214Z,34.82
2023-04-03T04:38:14.806Z,34.86
2023-04-03T04:40:43.124Z,35.02
2023-04-03T04:43:11.823Z,34.97
2023-04-03T04:45:40.142Z,34.85
2023-04-03T04:48:09.534Z,34.78
2023-04-03T04:50:37.910Z,34.43
2023-04-03T04:53:06.073Z,34.73
2023-04-03T04:55:35.098Z,34.61
2023-04-03T04:58:03.434Z,34.83
2023-04-03T05:00:32.040Z,34.48
2023-04-03T05:03:00.540Z,34.30
2023-04-03T05:05:29.619Z,34.69
2023-04-03T05:07:57.830Z,34.79
2023-04-03T05:10:26.401Z,34.86
2023-04-03T05:12:54.703Z,34.74
2023-04-03T05:15:22.858Z,34.61
2023-04-03T05:17:51.209Z,34.52
2023-04-03T05:20:19.387Z,34.84
2023-04-03T05:22:47.676Z,34.73
2023-04-03T05:25:16.516Z,34.49
2023-04-03T05:27:45.313Z,34.76
2023-04-03T05:30:14.635Z,34.58
2023-04-03T05:32:43.389Z,34.72
2023-04-03T05:35:12.579Z,34.39
2023-04-03T05:37:41.464Z,34.36
2023-04-03T05:40:11.245Z,34.47
2023-04-03T05:42:39.754Z,34.60
2023-04-03T05:45:08.708Z,34.31
2023-04-03T05:47:37.200Z,34.03
2023-04-03T05:50:06.216Z,34.36
2023-04-03T05:52:41.406Z,33.92
2023-04-03T05:55:09.922Z,34.04
2023-04-03T05:57:38.277Z,34.01
2023-04-03T06:00:09.080Z,34.17
2023-04-03T06:02:37.674Z,33.98
2023-04-03T06:05:07.178Z,34.15
2023-04-03T06:07:35.951Z,33.96
2023-04-03T06:10:04.629Z,33.85
2023-04-03T06:12:35.360Z,33.49
2023-04-03T06:15:04.436Z,32.82
2023-04-03T06:17:32.650Z,32.46
2023-04-03T06:20:02.058Z,32.17
2023-04-03T06:22:30.632Z,32.28
2023-04-03T06:24:59.428Z,32.22
2023-04-03T06:27:27.642Z,32.22
2023-04-03T06:29:56.331Z,31.91
2023-04-03T06:32:24.786Z,31.13
2023-04-03T06:34:53.086Z,30.29
2023-04-03T06:37:24.385Z,29.28
2023-04-03T06:39:53.169Z,28.17
2023-04-03T06:42:21.458Z,27.20
2023-04-03T06:44:51.429Z,26.42
2023-04-03T06:47:20.264Z,26.10
2023-04-03T06:49:48.738Z,25.12
2023-04-03T06:52:16.999Z,23.95
2023-04-03T06:54:45.151Z,22.93
2023-04-03T06:57:13.305Z,21.84
2023-04-03T06:59:41.895Z,20.44
2023-04-03T07:02:12.829Z,19.50
2023-04-03T07:04:41.259Z,18.65
2023-04-03T07:07:09.583Z,17.62
2023-04-03T07:09:37.831Z,17.00
2023-04-03T07:12:07.101Z,16.10
2023-04-03T07:14:35.514Z,16.00
2023-04-03T07:17:03.711Z,15.90
2023-04-03T07:19:31.993Z,15.68
2023-04-03T07:22:00.377Z,15.17
2023-04-03T07:24:28.596Z,15.01
2023-04-03T07:26:56.937Z,14.31
2023-04-03T07:29:25.416Z,13.68
2023-04-03T07:31:54.154Z,12.93
2023-04-03T07:34:22.764Z,12.19
2023-04-03T07:36:51.253Z,11.73
2023-04-03T07:39:19.414Z,11.37
2023-04-03T07:41:48.525Z,10.58
2023-04-03T07:44:16.768Z,10.27
2023-04-03T07:46:45.258Z,9.92
2023-04-03T07:49:13.814Z,9.57
2023-04-03T07:51:42.163Z,8.98
2023-04-03T07:54:10.273Z,9.14
2023-04-03T07:56:38.371Z,8.71
2023-04-03T07:59:06.755Z,8.55
2023-04-03T08:01:34.962Z,8.26
2023-04-03T08:04:03.255Z,8.23
2023-04-03T08:06:44.803Z,8.11
2023-04-03T08:09:16.741Z,7.86
2023-04-03T08:11:45.216Z,7.78
2023-04-03T08:14:14.405Z,7.59
2023-04-03T08:16:44.293Z,7.41
2023-04-03T08:19:22.416Z,7.35
2023-04-03T08:21:55.535Z,7.16
2023-04-03T08:24:24.456Z,7.23
2023-04-03T08:26:52.669Z,7.21
2023-04-03T08:29:20.928Z,7.29
2023-04-03T08:31:50.970Z,7.34
2023-04-03T08:34:21.225Z,7.39
2023-04-03T08:36:49.437Z,7.39
2023-04-03T08:39:18.088Z,7.54
2023-04-03T08:41:47.620Z,7.61
2023-04-03T08:44:48.334Z,7.76
2023-04-03T08:47:29.812Z,8.08
2023-04-03T08:50:05.441Z,8.24
2023-04-03T08:52:50.141Z,8.39
2023-04-03T08:55:33.106Z,8.74
2023-04-03T08:58:04.126Z,9.15
2023-04-03T09:01:00.418Z,9.64
2023-04-03T09:03:32.554Z,10.50
2023-04-03T09:06:31.722Z,11.24
2023-04-03T09:09:17.865Z,11.83
2023-04-03T09:12:11.108Z,12.32
2023-04-03T09:15:10.711Z,13.10
2023-04-03T09:18:00.298Z,14.33
2023-04-03T09:20:32.036Z,14.62
2023-04-03T09:23:00.264Z,14.44
2023-04-03T09:25:32.940Z,15.04
2023-04-03T09:28:02.349Z,14.87
2023-04-03T09:30:31.179Z,14.83
2023-04-03T09:32:59.592Z,14.99
2023-04-03T09:35:44.931Z,15.14
2023-04-03T09:38:23.529Z,15.25
2023-04-03T09:41:07.639Z,14.76
2023-04-03T09:43:38.860Z,15.04
2023-04-03T09:46:33.113Z,14.92
2023-04-03T09:49:12.079Z,15.16
2023-04-03T09:51:41.814Z,15.49
2023-04-03T09:54:35.179Z,15.89
2023-04-03T09:57:09.432Z,16.49
2023-04-03T09:59:44.776Z,16.54
2023-04-03T10:02:13.372Z,16.68
2023-04-03T10:04:43.056Z,16.59
2023-04-03T10:07:31.692Z,16.89
2023-04-03T10:10:03.779Z,16.88
2023-04-03T10:12:32.237Z,16.78
2023-04-03T10:15:02.106Z,16.66
2023-04-03T10:17:52.619Z,17.17
2023-04-03T10:20:40.961Z,17.37
2023-04-03T10:23:24.794Z,17.19
2023-04-03T10:26:25.084Z,17.34
2023-04-03T10:29:15.463Z,17.82
2023-04-03T10:31:55.284Z,18.33
2023-04-03T10:34:33.386Z,17.88
2023-04-03T10:37:19.528Z,17.47
2023-04-03T10:40:23.104Z,18.03
2023-04-03T10:43:05.909Z,18.56
2023-04-03T10:46:06.265Z,17.63
2023-04-03T10:48:50.268Z,18.11
2023-04-03T10:51:41.033Z,18.40
2023-04-03T10:54:20.165Z,18.21
2023-04-03T10:57:12.565Z,18.64
2023-04-03T11:00:04.860Z,19.31
2023-04-03T11:02:39.589Z,19.33
2023-04-03T11:05:32.820Z,19.18
2023-04-03T11:08:09.684Z,19.22
2023-04-03T11:10:45.782Z,19.34
2023-04-03T11:13:52.375Z,19.67
2023-04-03T11:16:26.314Z,19.82
2023-04-03T11:19:05.093Z,19.93
2023-04-03T11:21:40.706Z,19.31
2023-04-03T11:24:23.704Z,19.29
2023-04-03T11:26:54.923Z,19.43
2023-04-03T11:29:35.475Z,19.82
2023-04-03T11:32:39.650Z,19.59
2023-04-03T11:35:10.182Z,19.74
2023-04-03T11:37:47.110Z,19.63
2023-04-03T11:40:26.369Z,20.18
2023-04-03T11:43:05.549Z,21.06
2023-04-03T11:45:51.579Z,21.73
2023-04-03T11:48:24.773Z,22.41
2023-04-03T11:50:54.428Z,23.62
2023-04-03T11:53:33.271Z,25.88
2023-04-03T11:56:25.855Z,26.98
2023-04-03T11:59:23.268Z,27.36
2023-04-03T12:01:59.424Z,27.74
2023-04-03T12:04:29.041Z,27.29
2023-04-03T12:07:19.600Z,27.29
2023-04-03T12:09:47.769Z,27.35
2023-04-03T12:12:37.047Z,27.64
2023-04-03T12:15:22.728Z,27.35
2023-04-03T12:17:52.169Z,27.62
2023-04-03T12:20:59.397Z,27.68
2023-04-03T12:23:36.407Z,26.99
2023-04-03T12:26:32.387Z,26.85
2023-04-03T12:29:25.351Z,26.90
2023-04-03T12:32:25.726Z,27.05
2023-04-03T12:35:03.505Z,27.98
2023-04-03T12:37:32.152Z,28.75
2023-04-03T12:40:26.395Z,29.09
2023-04-03T12:43:49.490Z,28.56
2023-04-03T12:46:22.198Z,29.01
2023-04-03T12:48:59.375Z,29.87
2023-04-03T12:51:48.012Z,31.43
2023-04-03T12:54:24.600Z,32.14
2023-04-03T12:56:53.413Z,32.79
2023-04-03T12:59:24.951Z,33.27
2023-04-03T13:01:59.522Z,33.28
2023-04-03T13:04:29.668Z,33.91
2023-04-03T13:06:59.585Z,34.42
2023-04-03T13:09:32.781Z,34.61
2023-04-03T13:12:10.504Z,35.15
2023-04-03T13:14:38.989Z,35.37
2023-04-03T13:17:18.370Z,35.32
2023-04-03T13:19:47.135Z,35.21
2023-04-03T13:22:18.518Z,35.47
2023-04-03T13:24:50.691Z,35.88
2023-04-03T13:27:19.900Z,35.92
2023-04-03T13:29:54.996Z,35.95
2023-04-03T13:32:27.954Z,36.60
2023-04-03T13:35:08.098Z,37.23
2023-04-03T13:37:40.744Z,37.73
2023-04-03T13:40:13.495Z,38.24
2023-04-03T13:42:43.184Z,38.53
2023-04-03T13:45:14.279Z,38.88
2023-04-03T13:47:46.482Z,39.15
2023-04-03T13:50:24.966Z,39.29
2023-04-03T13:53:03.264Z,39.23
2023-04-03T13:55:38.562Z,39.10
2023-04-03T13:58:13.201Z,38.88
2023-04-03T14:00:57.861Z,39.34
2023-04-03T14:03:46.973Z,39.79
2023-04-03T14:06:17.810Z,40.10
2023-04-03T14:08:47.429Z,40.12
2023-04-03T14:11:30.916Z,40.48
2023-04-03T14:14:03.824Z,41.25
2023-04-03T14:16:38.584Z,41.97
2023-04-03T14:19:07.055Z,42.07
2023-04-03T14:21:35.546Z,41.77
2023-04-03T14:24:03.932Z,41.46
2023-04-03T14:26:32.596Z,41.39
2023-04-03T14:29:01.077Z,41.44
2023-04-03T14:31:30.484Z,41.47
2023-04-03T14:33:59.192Z,41.07
2023-04-03T14:36:29.669Z,40.96
2023-04-03T14:38:59.081Z,40.94
2023-04-03T14:41:28.407Z,41.00
2023-04-03T14:43:56.903Z,40.54
2023-04-03T14:46:45.533Z,40.39
2023-04-03T14:49:26.282Z,40.03
2023-04-03T14:51:55.308Z,40.13
2023-04-03T14:54:24.457Z,40.25
2023-04-03T14:56:54.040Z,39.92
2023-04-03T14:59:23.231Z,40.10
2023-04-03T15:01:51.538Z,40.15
2023-04-03T15:04:22.159Z,40.27
2023-04-03T15:06:53.009Z,40.42
2023-04-03T15:09:24.529Z,40.54
2023-04-03T15:11:55.738Z,40.58
2023-04-03T15:14:36.396Z,40.63
2023-04-03T15:17:08.147Z,40.89
2023-04-03T15:19:40.744Z,41.03
2023-04-03T15:22:15.531Z,40.82
2023-04-03T15:24:44.946Z,40.74
2023-04-03T15:27:15.226Z,40.70
2023-04-03T15:29:45.273Z,40.74
2023-04-03T15:32:14.404Z,40.83
2023-04-03T15:34:42.672Z,40.81
2023-04-03T15:37:10.896Z,40.94
2023-04-03T15:39:39.330Z,40.94
2023-04-03T15:42:07.573Z,41.03
2023-04-03T15:44:36.509Z,41.01
2023-04-03T15:47:05.705Z,40.98
2023-04-03T15:49:34.904Z,41.54
2023-04-03T15:52:03.892Z,42.24
2023-04-03T15:54:33.805Z,43.35
2023-04-03T15:57:02.272Z,43.69
2023-04-03T15:59:30.935Z,43.64
2023-04-03T16:02:01.799Z,43.77
2023-04-03T16:04:33.563Z,43.47
2023-04-03T16:07:03.685Z,43.13
2023-04-03T16:09:34.203Z,42.70
2023-04-03T16:12:02.869Z,42.56
2023-04-03T16:14:31.169Z,42.54
2023-04-03T16:17:01.423Z,42.18
2023-04-03T16:19:30.768Z,41.77
2023-04-03T16:21:59.027Z,41.93
2023-04-03T16:24:27.350Z,41.95
2023-04-03T16:26:55.482Z,41.72
2023-04-03T16:29:23.600Z,41.81
2023-04-03T16:31:52.482Z,41.83
2023-04-03T16:34:20.729Z,41.23
2023-04-03T16:36:49.895Z,41.18
2023-04-03T16:39:18.472Z,40.94
2023-04-03T16:41:47.003Z,41.21
2023-04-03T16:44:15.207Z,40.99
2023-04-03T16:46:44.467Z,40.92
2023-04-03T16:49:13.681Z,40.66
2023-04-03T16:51:41.805Z,40.65
2023-04-03T16:54:10.543Z,40.36
2023-04-03T16:56:38.645Z,40.29
2023-04-03T16:59:07.204Z,40.63
2023-04-03T17:01:35.550Z,40.76
2023-04-03T17:04:07.047Z,40.13
2023-04-03T17:06:35.674Z,40.19
2023-04-03T17:09:04.004Z,40.75
2023-04-03T17:11:32.844Z,41.29
2023-04-03T17:14:01.009Z,41.73
2023-04-03T17:16:30.890Z,41.86
2023-04-03T17:18:59.490Z,42.97
2023-04-03T17:21:27.957Z,43.27
2023-04-03T17:23:59.946Z,43.63
2023-04-03T17:26:28.747Z,43.90
2023-04-03T17:28:56.909Z,44.01
2023-04-03T17:31:25.111Z,44.13
2023-04-03T17:33:53.573Z,44.18
2023-04-03T17:36:21.973Z,44.41
2023-04-03T17:38:53.379Z,44.72
2023-04-03T17:41:22.278Z,44.76
2023-04-03T17:43:50.885Z,44.88
2023-04-03T17:46:19.310Z,44.74
2023-04-03T17:48:47.534Z,44.91
2023-04-03T17:51:20.099Z,44.63
2023-04-03T17:53:49.411Z,44.60
2023-04-03T17:56:20.245Z,44.35
2023-04-03T17:58:49.031Z,44.66
2023-04-03T18:01:23.755Z,44.66
2023-04-03T18:03:54.703Z,44.85
2023-04-03T18:06:28.102Z,44.89
2023-04-03T18:09:03.705Z,44.63
2023-04-03T18:11:33.152Z,44.73
2023-04-03T18:14:04.078Z,44.73
2023-04-03T18:16:32.413Z,44.69
2023-04-03T18:19:12.016Z,44.63
2023-04-03T18:21:49.887Z,44.21
2023-04-03T18:24:20.997Z,44.28
2023-04-03T18:26:55.910Z,44.42
2023-04-03T18:29:24.638Z,44.83
2023-04-03T18:31:57.153Z,45.26
2023-04-03T18:34:25.597Z,45.57
2023-04-03T18:36:53.778Z,45.94
2023-04-03T18:39:23.992Z,45.95
2023-04-03T18:41:53.760Z,45.90
2023-04-03T18:44:25.105Z,45.87
2023-04-03T18:46:53.943Z,45.73
2023-04-03T18:49:22.197Z,45.76
2023-04-03T18:51:50.492Z,45.70
2023-04-03T18:54:18.919Z,45.46
2023-04-03T18:56:47.658Z,45.58
2023-04-03T18:59:15.824Z,45.70
2023-04-03T19:01:44.320Z,45.86
2023-04-03T19:04:14.734Z,45.78
2023-04-03T19:06:43.032Z,45.70
2023-04-03T19:09:11.431Z,45.65
2023-04-03T19:11:39.577Z,45.62
2023-04-03T19:14:15.846Z,45.88
2023-04-03T19:16:45.370Z,45.87
2023-04-03T19:19:13.895Z,45.59
2023-04-03T19:21:42.216Z,45.75
2023-04-03T19:24:13.090Z,45.68
2023-04-03T19:26:42.715Z,45.86
2023-04-03T19:29:11.801Z,45.86
2023-04-03T19:31:41.046Z,46.07
2023-04-03T19:34:09.145Z,46.04
2023-04-03T19:36:37.531Z,46.08
2023-04-03T19:39:06.387Z,46.01
2023-04-03T19:41:36.389Z,45.88
2023-04-03T19:44:06.529Z,46.03
2023-04-03T19:46:36.540Z,45.89
2023-04-03T19:49:05.213Z,45.79
2023-04-03T19:51:33.778Z,45.62
2023-04-03T19:54:02.234Z,45.87
2023-04-03T19:56:30.378Z,45.73
2023-04-03T19:58:58.742Z,45.97
2023-04-03T20:01:27.077Z,45.87
2023-04-03T20:03:55.562Z,46.06
2023-04-03T20:06:24.173Z,46.25
2023-04-03T20:08:52.795Z,46.34
2023-04-03T20:11:21.091Z,46.44
2023-04-03T20:13:51.030Z,46.50
2023-04-03T20:16:23.062Z,46.52
2023-04-03T20:18:56.467Z,46.44
2023-04-03T20:21:32.513Z,46.52
2023-04-03T20:24:03.867Z,46.47
2023-04-03T20:26:34.063Z,46.67
2023-04-03T20:29:02.560Z,46.89
2023-04-03T20:31:33.031Z,46.78
2023-04-03T20:34:01.564Z,46.67
2023-04-03T20:36:29.807Z,46.73
2023-04-03T20:38:58.279Z,46.90
2023-04-03T20:41:26.762Z,46.71
2023-04-03T20:43:55.077Z,46.89
2023-04-03T20:46:23.457Z,46.89
2023-04-03T20:48:51.545Z,46.71
2023-04-03T20:51:20.587Z,46.97
2023-04-03T20:53:49.523Z,46.95
2023-04-03T20:56:18.345Z,46.90
2023-04-03T20:58:46.596Z,46.82
2023-04-03T21:01:23.595Z,46.90
2023-04-03T21:03:56.741Z,46.79
2023-04-03T21:07:02.810Z,46.77
2023-04-03T21:10:08.899Z,46.64
2023-04-03T21:13:15.570Z,46.62
2023-04-03T21:15:46.666Z,46.71
2023-04-03T21:18:48.404Z,46.65
2023-04-03T21:21:24.734Z,46.52
2023-04-03T21:23:54.731Z,46.45
2023-04-03T21:26:27.010Z,46.49
2023-04-03T21:28:55.411Z,46.37
2023-04-03T21:31:24.453Z,46.57
2023-04-03T21:33:52.702Z,46.66
2023-04-03T21:36:21.055Z,46.69
2023-04-03T21:38:49.555Z,46.64
2023-04-03T21:41:18.246Z,46.58
2023-04-03T21:43:46.543Z,46.47
2023-04-03T21:46:15.011Z,46.63
2023-04-03T21:48:43.243Z,46.60
2023-04-03T21:51:11.419Z,46.62
2023-04-03T21:53:39.676Z,46.74
2023-04-03T21:56:08.021Z,46.50
2023-04-03T21:58:36.558Z,46.41
2023-04-03T22:01:13.208Z,46.62
2023-04-03T22:03:43.317Z,46.57
2023-04-03T22:06:15.109Z,46.68
2023-04-03T22:08:46.454Z,46.62
2023-04-03T22:11:16.082Z,46.78
2023-04-03T22:13:45.391Z,46.63
2023-04-03T22:16:13.642Z,46.67
2023-04-03T22:18:42.350Z,46.75
2023-04-03T22:21:10.716Z,46.82
2023-04-03T22:23:38.947Z,46.76
2023-04-03T22:26:09.543Z,46.94
2023-04-03T22:28:41.879Z,46.86
2023-04-03T22:31:10.414Z,46.85
2023-04-03T22:33:40.202Z,46.72
2023-04-03T22:36:10.597Z,46.71
2023-04-03T22:38:39.953Z,46.62
2023-04-03T22:41:08.294Z,46.75
2023-04-03T22:43:38.233Z,46.68
2023-04-03T22:46:08.831Z,46.78
2023-04-03T22:48:38.020Z,46.72
2023-04-03T22:51:06.839Z,46.69
2023-04-03T22:53:35.670Z,46.72
2023-04-03T22:56:07.062Z,46.87
2023-04-03T22:58:35.177Z,46.81
2023-04-03T23:01:14.525Z,46.79
2023-04-03T23:03:43.293Z,46.79
2023-04-03T23:06:11.432Z,46.79
2023-04-03T23:08:39.697Z,46.87
2023-04-03T23:11:08.681Z,46.82
2023-04-03T23:13:37.797Z,46.78
2023-04-03T23:16:07.017Z,46.97
2023-04-03T23:18:35.355Z,46.85
2023-04-03T23:21:03.910Z,46.82
2023-04-03T23:23:32.922Z,46.95
2023-04-03T23:26:02.003Z,46.86
2023-04-03T23:28:31.093Z,46.88
2023-04-03T23:31:00.764Z,46.94
2023-04-03T23:33:30.692Z,46.93
2023-04-03T23:36:01.165Z,46.98
2023-04-03T23:38:29.604Z,46.89
2023-04-03T23:40:57.832Z,46.79
2023-04-03T23:43:26.282Z,46.94
2023-04-03T23:45:55.211Z,46.87
2023-04-03T23:48:23.380Z,46.92
2023-04-03T23:50:51.676Z,46.93
2023-04-03T23:53:19.751Z,46.99
2023-04-03T23:55:48.124Z,46.88
2023-04-03T23:58:16.419Z,46.95
